| time (UTC) | temp C | wind direction | speed KPH | gust KPH | rain 1hr cm | rain 24hr cm | rain mn cm | humidity % | barometer mb |
| 20260507085540 | 10 | 105 | 0.0 | 0.0 | 0.00 | 0.03 | 0.03 | 88 | 1010.0 |
| 20260507085037 | 10 | 97 | 1.6 | 1.6 | 0.00 | 0.03 | 0.03 | 89 | 1010.1 |
| 20260507084534 | 10 | 192 | 0.0 | 3.2 | 0.00 | 0.03 | 0.03 | 90 | 1010.1 |
| 20260507084031 | 10 | 108 | 0.0 | 3.2 | 0.00 | 0.03 | 0.03 | 92 | 1010.1 |
| 20260507083527 | 10 | 121 | 0.0 | 1.6 | 0.00 | 0.03 | 0.03 | 94 | 1010.2 |
| 20260507083024 | 10 | 145 | 0.0 | 3.2 | 0.00 | 0.03 | 0.03 | 95 | 1010.5 |
| 20260507082520 | 10 | 128 | 0.0 | 0.0 | 0.00 | 0.03 | 0.03 | 95 | 1010.4 |
| 20260507082016 | 10 | 139 | 0.0 | 1.6 | 0.00 | 0.03 | 0.03 | 95 | 1010.3 |
| 20260507081513 | 10 | 118 | 0.0 | 0.0 | 0.00 | 0.03 | 0.03 | 95 | 1009.9 |
| 20260507081010 | 10 | 118 | 0.0 | 0.0 | 0.00 | 0.03 | 0.03 | 95 | 1010.0 |
| 20260507080506 | 10 | 118 | 0.0 | 0.0 | 0.00 | 0.03 | 0.03 | 95 | 1009.9 |
| 20260507080001 | 10 | 118 | 0.0 | 0.0 | 0.00 | 0.03 | 0.03 | 95 | 1010.0 |
| 20260507075458 | 10 | 118 | 0.0 | 0.0 | 0.00 | 0.03 | 0.03 | 95 | 1009.5 |
| 20260507074954 | 10 | 118 | 0.0 | 0.0 | 0.00 | 0.03 | 0.03 | 95 | 1009.5 |
| 20260507074451 | 10 | 118 | 0.0 | 0.0 | 0.00 | 0.03 | 0.03 | 95 | 1009.7 |
| 20260507073950 | 10 | 146 | 0.0 | 0.0 | 0.00 | 0.03 | 0.03 | 95 | 1009.7 |
| 20260507073445 | 10 | 144 | 0.0 | 0.0 | 0.00 | 0.03 | 0.03 | 96 | 1010.0 |
| 20260507072942 | 10 | 132 | 0.0 | 0.0 | 0.00 | 0.03 | 0.03 | 96 | 1009.9 |
| 20260507072440 | 10 | 178 | 0.0 | 0.0 | 0.00 | 0.03 | 0.03 | 96 | 1009.7 |
| 20260507071937 | 10 | 169 | 0.0 | 0.0 | 0.00 | 0.03 | 0.03 | 96 | 1009.7 |
| 20260507071434 | 10 | 169 | 0.0 | 0.0 | 0.00 | 0.03 | 0.03 | 96 | 1009.5 |
| 20260507070930 | 10 | 169 | 0.0 | 0.0 | 0.00 | 0.03 | 0.03 | 96 | 1009.3 |
| 20260507070428 | 10 | 169 | 0.0 | 0.0 | 0.00 | 0.03 | 0.03 | 96 | 1009.4 |
| 20260507065924 | 11 | 169 | 0.0 | 0.0 | 0.00 | 0.03 | 0.03 | 96 | 1009.3 |
| 20260507065421 | 11 | 169 | 0.0 | 0.0 | 0.00 | 0.03 | 0.03 | 96 | 1009.4 |
| 20260507064918 | 11 | 169 | 0.0 | 0.0 | 0.00 | 0.03 | 0.03 | 96 | 1009.3 |
| 20260507064417 | 11 | 168 | 0.0 | 0.0 | 0.00 | 0.03 | 0.03 | 96 | 1009.2 |
| 20260507063914 | 11 | 169 | 0.0 | 0.0 | 0.00 | 0.03 | 0.03 | 96 | 1009.5 |
| 20260507063411 | 11 | 169 | 0.0 | 0.0 | 0.00 | 0.03 | 0.03 | 96 | 1009.4 |
| 20260507062908 | 11 | 169 | 0.0 | 0.0 | 0.00 | 0.03 | 0.03 | 96 | 1009.2 |
| 20260507062405 | 11 | 169 | 0.0 | 0.0 | 0.00 | 0.03 | 0.03 | 96 | 1009.6 |
| 20260507061902 | 11 | 169 | 0.0 | 0.0 | 0.00 | 0.03 | 0.03 | 96 | 1009.2 |
| 20260507061400 | 11 | 169 | 0.0 | 0.0 | 0.00 | 0.03 | 0.03 | 96 | 1008.9 |
| 20260507060859 | 11 | 169 | 0.0 | 0.0 | 0.00 | 0.03 | 0.03 | 96 | 1009.0 |
| 20260507060355 | 11 | 169 | 0.0 | 0.0 | 0.00 | 0.03 | 0.03 | 96 | 1009.3 |
| 20260507055852 | 11 | 169 | 0.0 | 0.0 | 0.00 | 0.03 | 0.03 | 96 | 1009.3 |
| 20260507055352 | 11 | 169 | 0.0 | 1.6 | 0.00 | 0.03 | 0.03 | 96 | 1009.3 |
| 20260507054850 | 11 | 175 | 0.0 | 1.6 | 0.00 | 0.03 | 0.03 | 96 | 1009.2 |
| 20260507054345 | 11 | 142 | 0.0 | 1.6 | 0.00 | 0.03 | 0.03 | 96 | 1008.7 |
| 20260507053843 | 11 | 108 | 0.0 | 3.2 | 0.00 | 0.03 | 0.03 | 96 | 1008.7 |
| 20260507053341 | 11 | 145 | 0.0 | 0.0 | 0.00 | 0.03 | 0.03 | 97 | 1008.4 |
| 20260507052840 | 11 | 145 | 0.0 | 0.0 | 0.00 | 0.03 | 0.03 | 97 | 1008.8 |
| 20260507052336 | 11 | 165 | 0.0 | 1.6 | 0.00 | 0.03 | 0.03 | 97 | 1009.0 |
| 20260507051833 | 11 | 176 | 1.6 | 1.6 | 0.00 | 0.03 | 0.03 | 97 | 1008.7 |
| 20260507051331 | 11 | 162 | 0.0 | 1.6 | 0.00 | 0.03 | 0.03 | 97 | 1008.5 |
| 20260507050827 | 11 | 170 | 1.6 | 3.2 | 0.00 | 0.03 | 0.03 | 97 | 1008.5 |
| 20260507050324 | 11 | 125 | 0.0 | 1.6 | 0.00 | 0.03 | 0.03 | 97 | 1008.4 |
| 20260507045821 | 12 | 167 | 0.0 | 1.6 | 0.00 | 0.03 | 0.03 | 97 | 1008.9 |
| 20260507045317 | 12 | 134 | 0.0 | 0.0 | 0.00 | 0.03 | 0.03 | 98 | 1008.8 |
| 20260507044815 | 12 | 171 | 1.6 | 1.6 | 0.00 | 0.03 | 0.03 | 98 | 1008.7 |
| 20260507044311 | 12 | 177 | 0.0 | 1.6 | 0.00 | 0.03 | 0.03 | 98 | 1008.5 |
| 20260507043807 | 12 | 129 | 0.0 | 3.2 | 0.00 | 0.03 | 0.03 | 98 | 1008.2 |
| 20260507043304 | 12 | 182 | 1.6 | 3.2 | 0.00 | 0.03 | 0.03 | 98 | 1008.2 |
| 20260507042800 | 12 | 202 | 3.2 | 3.2 | 0.18 | 0.03 | 0.03 | 98 | 1008.1 |
| 20260507042255 | 12 | 132 | 0.0 | 1.6 | 0.18 | 0.03 | 0.03 | 98 | 1007.9 |
| 20260507041753 | 12 | 173 | 1.6 | 4.8 | 0.00 | 0.00 | 0.00 | 98 | 1008.3 |
| 20260507041249 | 12 | 198 | 1.6 | 4.8 | 0.00 | 0.00 | 0.00 | 98 | 1008.1 |
| 20260507040746 | 12 | 154 | 1.6 | 3.2 | 0.00 | 0.00 | 0.00 | 98 | 1008.1 |
| 20260507040242 | 12 | 213 | 3.2 | 3.2 | 0.00 | 0.00 | 0.00 | 98 | 1008.0 |
| 20260507035739 | 12 | 181 | 0.0 | 1.6 | 0.00 | 0.58 | 0.58 | 99 | 1008.2 |
| 20260507035234 | 12 | 196 | 3.2 | 3.2 | 0.00 | 0.58 | 0.58 | 99 | 1008.4 |
| 20260507034732 | 12 | 193 | 0.0 | 0.0 | 0.00 | 0.58 | 0.58 | 99 | 1008.2 |
| 20260507034228 | 12 | 193 | 0.0 | 0.0 | 0.00 | 0.58 | 0.58 | 99 | 1008.5 |
| 20260507033727 | 12 | 193 | 0.0 | 1.6 | 0.00 | 0.58 | 0.58 | 99 | 1008.3 |
| 20260507033224 | 12 | 193 | 0.0 | 1.6 | 0.13 | 0.58 | 0.58 | 98 | 1008.2 |
| 20260507032722 | 12 | 203 | 3.2 | 3.2 | 0.13 | 0.58 | 0.58 | 98 | 1008.0 |
| 20260507032217 | 12 | 151 | 0.0 | 0.0 | 0.00 | 0.56 | 0.56 | 98 | 1008.2 |
| 20260507031714 | 12 | 134 | 0.0 | 1.6 | 0.00 | 0.56 | 0.56 | 98 | 1007.9 |
| 20260507031211 | 12 | 233 | 3.2 | 3.2 | 0.00 | 0.56 | 0.56 | 98 | 1007.7 |
| 20260507030708 | 12 | 169 | 0.0 | 3.2 | 0.00 | 0.56 | 0.56 | 98 | 1007.7 |
| 20260507030206 | 12 | 211 | 4.8 | 4.8 | 0.00 | 0.56 | 0.56 | 98 | 1007.7 |
| 20260507025702 | 12 | 175 | 1.6 | 6.4 | 0.00 | 0.56 | 0.56 | 98 | 1007.8 |
| 20260507025159 | 12 | 175 | 0.0 | 3.2 | 0.00 | 0.56 | 0.56 | 98 | 1007.8 |
| 20260507024657 | 12 | 229 | 1.6 | 3.2 | 0.00 | 0.56 | 0.56 | 98 | 1008.0 |
| 20260507024154 | 12 | 184 | 1.6 | 11.3 | 0.00 | 0.56 | 0.56 | 98 | 1007.9 |
| 20260507023649 | 12 | 205 | 1.6 | 4.8 | 0.00 | 0.56 | 0.56 | 98 | 1008.1 |
| 20260507023147 | 12 | 191 | 3.2 | 6.4 | 0.00 | 0.56 | 0.56 | 98 | 1007.8 |
| 20260507022644 | 12 | 180 | 4.8 | 6.4 | 0.00 | 0.56 | 0.56 | 98 | 1008.0 |
| 20260507022140 | 12 | 153 | 1.6 | 6.4 | 0.00 | 0.56 | 0.56 | 98 | 1008.0 |
| 20260507021636 | 12 | 173 | 3.2 | 6.4 | 0.00 | 0.56 | 0.56 | 98 | 1008.2 |
| 20260507021132 | 12 | 221 | 4.8 | 6.4 | 0.00 | 0.56 | 0.56 | 98 | 1008.2 |
| 20260507020630 | 12 | 145 | 1.6 | 6.4 | 0.00 | 0.56 | 0.56 | 98 | 1008.4 |
| 20260507020126 | 12 | 205 | 3.2 | 6.4 | 0.00 | 0.56 | 0.56 | 98 | 1008.4 |
| 20260507015625 | 12 | 188 | 1.6 | 3.2 | 0.00 | 0.56 | 0.56 | 98 | 1008.4 |
| 20260507015122 | 12 | 169 | 3.2 | 6.4 | 0.00 | 0.56 | 0.56 | 98 | 1008.3 |
| 20260507014618 | 12 | 223 | 3.2 | 4.8 | 0.00 | 0.56 | 0.56 | 98 | 1008.3 |
| 20260507014114 | 12 | 144 | 0.0 | 9.7 | 0.00 | 0.56 | 0.56 | 98 | 1008.5 |
| 20260507013611 | 12 | 210 | 3.2 | 11.3 | 0.00 | 0.56 | 0.56 | 98 | 1008.5 |
| 20260507013108 | 12 | 223 | 6.4 | 11.3 | 0.00 | 0.56 | 0.56 | 98 | 1008.5 |
| 20260507012605 | 12 | 206 | 3.2 | 4.8 | 0.00 | 0.56 | 0.56 | 98 | 1008.6 |
| 20260507012101 | 12 | 239 | 6.4 | 12.9 | 0.00 | 0.56 | 0.56 | 98 | 1008.5 |
| 20260507011559 | 12 | 269 | 3.2 | 12.9 | 0.00 | 0.56 | 0.56 | 98 | 1008.6 |
| 20260507011055 | 12 | 183 | 9.7 | 12.9 | 0.00 | 0.56 | 0.56 | 98 | 1008.6 |
| 20260507010550 | 12 | 196 | 3.2 | 9.7 | 0.00 | 0.56 | 0.56 | 98 | 1008.6 |
| 20260507010046 | 12 | 245 | 4.8 | 14.5 | 0.00 | 0.56 | 0.56 | 98 | 1008.5 |
| 20260507005544 | 12 | 237 | 3.2 | 12.9 | 0.00 | 0.56 | 0.56 | 98 | 1008.7 |
| 20260507005040 | 12 | 227 | 6.4 | 11.3 | 0.00 | 0.56 | 0.56 | 98 | 1008.6 |
| 20260507004537 | 11 | 135 | 3.2 | 11.3 | 0.00 | 0.56 | 0.56 | 98 | 1008.6 |
| 20260507004035 | 11 | 205 | 4.8 | 12.9 | 0.18 | 0.56 | 0.56 | 98 | 1008.7 |
| 20260507003530 | 11 | 249 | 6.4 | 6.4 | 0.18 | 0.56 | 0.56 | 97 | 1008.6 |
| 20260507003025 | 11 | 236 | 6.4 | 11.3 | 0.00 | 0.53 | 0.53 | 97 | 1008.7 |
| 20260507002522 | 11 | 139 | 1.6 | 14.5 | 0.00 | 0.53 | 0.53 | 97 | 1008.8 |
| 20260507002018 | 11 | 176 | 4.8 | 12.9 | 0.00 | 0.53 | 0.53 | 97 | 1008.8 |
| 20260507001514 | 11 | 238 | 9.7 | 12.9 | 0.00 | 0.53 | 0.53 | 97 | 1008.7 |
| 20260507001013 | 11 | 227 | 4.8 | 4.8 | 0.00 | 0.53 | 0.53 | 97 | 1008.8 |
| 20260507000508 | 11 | 240 | 3.2 | 12.9 | 0.00 | 0.53 | 0.53 | 97 | 1008.8 |
| 20260507000004 | 11 | 168 | 4.8 | 17.7 | 0.00 | 0.53 | 0.53 | 97 | 1009.0 |
| 20260506235501 | 11 | 173 | 0.0 | 6.4 | 0.00 | 0.53 | 0.53 | 97 | 1008.9 |
| 20260506234957 | 11 | 182 | 4.8 | 11.3 | 0.00 | 0.53 | 0.53 | 97 | 1009.0 |
| 20260506234454 | 11 | 256 | 6.4 | 11.3 | 0.00 | 0.53 | 0.53 | 97 | 1008.9 |
| 20260506233952 | 11 | 219 | 4.8 | 11.3 | 0.00 | 0.53 | 0.53 | 97 | 1008.9 |
| 20260506233449 | 11 | 222 | 3.2 | 9.7 | 0.00 | 0.53 | 0.53 | 97 | 1008.9 |
| 20260506232945 | 11 | 221 | 11.3 | 14.5 | 0.00 | 0.53 | 0.53 | 97 | 1008.9 |
| 20260506232441 | 12 | 203 | 6.4 | 9.7 | 0.00 | 0.53 | 0.53 | 97 | 1009.0 |
| 20260506231937 | 12 | 226 | 4.8 | 12.9 | 0.00 | 0.53 | 0.53 | 97 | 1008.9 |
| 20260506231435 | 12 | 239 | 8.0 | 14.5 | 0.00 | 0.53 | 0.53 | 97 | 1009.0 |
| 20260506230932 | 12 | 223 | 4.8 | 11.3 | 0.00 | 0.53 | 0.53 | 97 | 1009.1 |
| 20260506230428 | 12 | 234 | 6.4 | 9.7 | 0.00 | 0.53 | 0.53 | 96 | 1009.2 |
| 20260506225925 | 12 | 116 | 8.0 | 12.9 | 0.00 | 0.53 | 0.53 | 96 | 1009.0 |
| 20260506225422 | 11 | 348 | 6.4 | 14.5 | 0.00 | 0.53 | 0.53 | 96 | 1009.1 |
| 20260506224919 | 11 | 217 | 8.0 | 9.7 | 0.00 | 0.53 | 0.53 | 96 | 1009.2 |
| 20260506224417 | 11 | 229 | 4.8 | 14.5 | 0.00 | 0.53 | 0.53 | 96 | 1009.4 |
| 20260506223912 | 11 | 247 | 9.7 | 14.5 | 0.00 | 0.53 | 0.53 | 96 | 1009.2 |
| 20260506223408 | 12 | 227 | 8.0 | 12.9 | 0.00 | 0.53 | 0.53 | 96 | 1009.4 |
| 20260506222905 | 12 | 262 | 16.1 | 22.5 | 0.00 | 0.53 | 0.53 | 96 | 1009.1 |
| 20260506222401 | 12 | 235 | 4.8 | 9.7 | 0.18 | 0.53 | 0.53 | 96 | 1009.3 |
| 20260506221859 | 12 | 215 | 3.2 | 9.7 | 0.18 | 0.53 | 0.53 | 96 | 1009.4 |
| 20260506221356 | 12 | 174 | 6.4 | 9.7 | 0.00 | 0.51 | 0.51 | 96 | 1009.5 |
| 20260506220853 | 12 | 227 | 6.4 | 11.3 | 0.00 | 0.51 | 0.51 | 96 | 1009.4 |
| 20260506220349 | 12 | 217 | 9.7 | 12.9 | 0.00 | 0.51 | 0.51 | 96 | 1009.5 |
| 20260506215846 | 12 | 244 | 3.2 | 4.8 | 0.13 | 0.51 | 0.51 | 96 | 1009.5 |
| 20260506215342 | 12 | 234 | 11.3 | 16.1 | 0.30 | 0.51 | 0.51 | 96 | 1009.6 |
| 20260506214838 | 12 | 209 | 3.2 | 9.7 | 0.30 | 0.48 | 0.48 | 95 | 1009.4 |
| 20260506214335 | 12 | 219 | 8.0 | 12.9 | 0.30 | 0.46 | 0.46 | 95 | 1009.6 |
| 20260506213833 | 12 | 206 | 8.0 | 24.1 | 0.30 | 0.43 | 0.43 | 95 | 1009.6 |
| 20260506213330 | 12 | 227 | 12.9 | 16.1 | 0.30 | 0.41 | 0.41 | 95 | 1009.9 |
| 20260506212827 | 12 | 190 | 4.8 | 17.7 | 0.18 | 0.38 | 0.38 | 95 | 1009.8 |
| 20260506212323 | 12 | 206 | 6.4 | 12.9 | 0.13 | 0.36 | 0.36 | 95 | 1009.8 |
| 20260506211818 | 12 | 239 | 9.7 | 16.1 | 0.30 | 0.36 | 0.36 | 95 | 1009.8 |
| 20260506211314 | 12 | 207 | 4.8 | 14.5 | 0.13 | 0.30 | 0.30 | 95 | 1010.1 |
| 20260506210812 | 12 | 232 | 6.4 | 12.9 | 0.30 | 0.30 | 0.30 | 94 | 1010.0 |
| 20260506210308 | 12 | 225 | 8.0 | 11.3 | 0.30 | 0.28 | 0.28 | 94 | 1010.1 |
| 20260506205805 | 12 | 216 | 9.7 | 14.5 | 0.30 | 0.25 | 0.25 | 94 | 1010.0 |
| 20260506205305 | 12 | 184 | 8.0 | 9.7 | 0.36 | 0.23 | 0.23 | 93 | 1010.0 |
| 20260506204758 | 12 | 235 | 4.8 | 11.3 | 0.18 | 0.20 | 0.20 | 93 | 1010.0 |
| 20260506204256 | 12 | 232 | 6.4 | 9.7 | 0.00 | 0.18 | 0.18 | 93 | 1010.0 |
| 20260506203754 | 12 | 247 | 3.2 | 16.1 | 0.13 | 0.18 | 0.18 | 93 | 1010.1 |
| 20260506203251 | 12 | 198 | 6.4 | 9.7 | 0.00 | 0.15 | 0.15 | 92 | 1009.9 |
| 20260506202748 | 13 | 151 | 0.0 | 6.4 | 0.00 | 0.15 | 0.15 | 92 | 1010.0 |
| 20260506202244 | 13 | 188 | 3.2 | 6.4 | 0.18 | 0.15 | 0.15 | 93 | 1010.1 |
| 20260506201741 | 13 | 245 | 6.4 | 12.9 | 0.18 | 0.15 | 0.15 | 93 | 1010.1 |
| 20260506201238 | 13 | 181 | 1.6 | 6.4 | 0.00 | 0.13 | 0.13 | 93 | 1009.8 |
| 20260506200735 | 13 | 207 | 3.2 | 4.8 | 0.00 | 0.13 | 0.13 | 93 | 1010.1 |
| 20260506200231 | 13 | 237 | 4.8 | 6.4 | 0.00 | 0.13 | 0.13 | 93 | 1009.9 |
| 20260506195727 | 13 | 220 | 8.0 | 9.7 | 0.13 | 0.13 | 0.13 | 93 | 1010.2 |
| 20260506195224 | 12 | 183 | 3.2 | 3.2 | 0.13 | 0.13 | 0.13 | 92 | 1010.5 |
| 20260506194721 | 12 | 162 | 0.0 | 4.8 | 0.00 | 0.10 | 0.10 | 92 | 1010.4 |
| 20260506194218 | 12 | 220 | 3.2 | 4.8 | 0.18 | 0.10 | 0.10 | 91 | 1010.5 |
| 20260506193716 | 12 | 252 | 9.7 | 11.3 | 0.18 | 0.10 | 0.10 | 91 | 1010.6 |
| 20260506193212 | 13 | 231 | 6.4 | 11.3 | 0.13 | 0.08 | 0.08 | 90 | 1010.5 |
| 20260506192709 | 13 | 239 | 4.8 | 9.7 | 0.30 | 0.08 | 0.08 | 89 | 1010.6 |
| 20260506192206 | 13 | 243 | 8.0 | 12.9 | 0.30 | 0.05 | 0.05 | 88 | 1011.0 |
| 20260506191703 | 13 | 196 | 3.2 | 9.7 | 0.13 | 0.03 | 0.03 | 87 | 1010.9 |
| 20260506191159 | 13 | 201 | 3.2 | 6.4 | 0.00 | 0.00 | 0.00 | 87 | 1010.7 |
| 20260506190656 | 13 | 202 | 1.6 | 4.8 | 0.00 | 0.00 | 0.00 | 86 | 1010.7 |
| 20260506190153 | 14 | 245 | 3.2 | 11.3 | 0.00 | 0.00 | 0.00 | 85 | 1010.4 |
| 20260506185650 | 14 | 188 | 1.6 | 6.4 | 0.00 | 0.00 | 0.00 | 83 | 1010.6 |
| 20260506185146 | 14 | 227 | 6.4 | 12.9 | 0.00 | 0.00 | 0.00 | 81 | 1010.7 |
| 20260506184644 | 14 | 186 | 9.7 | 12.9 | 0.00 | 0.00 | 0.00 | 80 | 1010.3 |
| 20260506184141 | 15 | 238 | 6.4 | 17.7 | 0.00 | 0.00 | 0.00 | 79 | 1010.1 |
| 20260506183637 | 15 | 224 | 4.8 | 6.4 | 0.00 | 0.00 | 0.00 | 78 | 1010.3 |
| 20260506183133 | 15 | 167 | 1.6 | 12.9 | 0.00 | 0.00 | 0.00 | 78 | 1010.4 |
| 20260506182631 | 15 | 230 | 4.8 | 6.4 | 0.00 | 0.00 | 0.00 | 77 | 1010.3 |
| 20260506182128 | 15 | 264 | 6.4 | 20.9 | 0.00 | 0.00 | 0.00 | 77 | 1010.3 |
| 20260506181626 | 15 | 220 | 4.8 | 11.3 | 0.00 | 0.00 | 0.00 | 77 | 1010.5 |
| 20260506181123 | 15 | 212 | 6.4 | 16.1 | 0.00 | 0.00 | 0.00 | 77 | 1010.7 |
| 20260506180619 | 15 | 231 | 9.7 | 16.1 | 0.00 | 0.00 | 0.00 | 76 | 1010.4 |
| 20260506180116 | 15 | 243 | 4.8 | 14.5 | 0.00 | 0.00 | 0.00 | 77 | 1010.4 |
| 20260506175612 | 15 | 221 | 9.7 | 27.4 | 0.00 | 0.00 | 0.00 | 76 | 1010.5 |
| 20260506175108 | 15 | 260 | 11.3 | 22.5 | 0.00 | 0.00 | 0.00 | 76 | 1010.7 |
| 20260506174607 | 15 | 251 | 6.4 | 14.5 | 0.00 | 0.00 | 0.00 | 76 | 1010.5 |
| 20260506174103 | 15 | 230 | 6.4 | 11.3 | 0.00 | 0.00 | 0.00 | 77 | 1010.6 |
| 20260506173601 | 15 | 218 | 8.0 | 16.1 | 0.00 | 0.00 | 0.00 | 76 | 1010.7 |
| 20260506173058 | 15 | 262 | 3.2 | 9.7 | 0.00 | 0.00 | 0.00 | 77 | 1010.8 |
| 20260506172555 | 14 | 219 | 4.8 | 6.4 | 0.00 | 0.00 | 0.00 | 78 | 1010.7 |
| 20260506172051 | 14 | 247 | 8.0 | 12.9 | 0.00 | 0.00 | 0.00 | 78 | 1010.8 |
| 20260506171549 | 14 | 236 | 9.7 | 12.9 | 0.00 | 0.00 | 0.00 | 78 | 1011.0 |
| 20260506171046 | 14 | 267 | 6.4 | 14.5 | 0.00 | 0.00 | 0.00 | 78 | 1011.0 |
| 20260506170543 | 14 | 286 | 9.7 | 12.9 | 0.00 | 0.00 | 0.00 | 78 | 1011.0 |
| 20260506170041 | 14 | 251 | 4.8 | 12.9 | 0.00 | 0.00 | 0.00 | 78 | 1011.2 |
| 20260506165539 | 15 | 208 | 4.8 | 9.7 | 0.00 | 0.00 | 0.00 | 77 | 1011.4 |
| 20260506165035 | 15 | 201 | 4.8 | 9.7 | 0.00 | 0.00 | 0.00 | 77 | 1011.5 |
| 20260506164532 | 15 | 231 | 3.2 | 11.3 | 0.00 | 0.00 | 0.00 | 76 | 1011.5 |
| 20260506164030 | 15 | 228 | 4.8 | 14.5 | 0.00 | 0.00 | 0.00 | 76 | 1011.6 |
| 20260506163525 | 16 | 232 | 3.2 | 4.8 | 0.00 | 0.00 | 0.00 | 75 | 1011.8 |
| 20260506163021 | 16 | 238 | 3.2 | 6.4 | 0.00 | 0.00 | 0.00 | 74 | 1011.7 |
| 20260506162518 | 16 | 228 | 4.8 | 6.4 | 0.00 | 0.00 | 0.00 | 74 | 1011.8 |
| 20260506162015 | 16 | 223 | 6.4 | 9.7 | 0.00 | 0.00 | 0.00 | 74 | 1012.0 |
| 20260506161513 | 16 | 215 | 4.8 | 4.8 | 0.00 | 0.00 | 0.00 | 74 | 1012.1 |
| 20260506161010 | 16 | 217 | 3.2 | 11.3 | 0.00 | 0.00 | 0.00 | 73 | 1012.1 |
| 20260506160508 | 17 | 227 | 1.6 | 11.3 | 0.00 | 0.00 | 0.00 | 73 | 1012.1 |
| 20260506160005 | 16 | 198 | 4.8 | 11.3 | 0.00 | 0.00 | 0.00 | 73 | 1012.4 |
| 20260506155503 | 16 | 228 | 4.8 | 9.7 | 0.00 | 0.00 | 0.00 | 73 | 1012.4 |
| 20260506153634 | 16 | 243 | 12.9 | 14.5 | 0.00 | 0.00 | 0.00 | 74 | 1012.2 |
| 20260506153131 | 16 | 192 | 4.8 | 4.8 | 0.00 | 0.00 | 0.00 | 74 | 1012.3 |
| 20260506152628 | 16 | 252 | 4.8 | 6.4 | 0.00 | 0.00 | 0.00 | 75 | 1012.6 |
| 20260506152125 | 16 | 166 | 3.2 | 4.8 | 0.00 | 0.00 | 0.00 | 74 | 1012.6 |
| 20260506151624 | 16 | 227 | 3.2 | 6.4 | 0.00 | 0.00 | 0.00 | 75 | 1012.7 |
| 20260506151121 | 16 | 233 | 6.4 | 16.1 | 0.00 | 0.00 | 0.00 | 75 | 1012.6 |
| 20260506150617 | 16 | 243 | 3.2 | 3.2 | 0.00 | 0.00 | 0.00 | 74 | 1012.4 |
| 20260506150114 | 16 | 169 | 1.6 | 6.4 | 0.00 | 0.00 | 0.00 | 76 | 1012.3 |
| 20260506145611 | 16 | 228 | 6.4 | 9.7 | 0.00 | 0.00 | 0.00 | 75 | 1012.3 |
| 20260506145108 | 16 | 173 | 3.2 | 9.7 | 0.00 | 0.00 | 0.00 | 75 | 1012.3 |
| 20260506144605 | 16 | 200 | 3.2 | 4.8 | 0.00 | 0.00 | 0.00 | 75 | 1012.3 |
| 20260506144102 | 16 | 238 | 4.8 | 6.4 | 0.00 | 0.00 | 0.00 | 76 | 1012.3 |
| 20260506143600 | 16 | 261 | 9.7 | 12.9 | 0.00 | 0.00 | 0.00 | 76 | 1012.1 |
| 20260506143058 | 16 | 219 | 3.2 | 12.9 | 0.00 | 0.00 | 0.00 | 76 | 1012.3 |
| 20260506142555 | 16 | 158 | 1.6 | 12.9 | 0.00 | 0.00 | 0.00 | 77 | 1012.1 |
| 20260506142053 | 15 | 225 | 3.2 | 4.8 | 0.00 | 0.00 | 0.00 | 78 | 1012.3 |
| 20260506141551 | 15 | 245 | 3.2 | 4.8 | 0.00 | 0.00 | 0.00 | 78 | 1012.4 |
| 20260506141049 | 15 | 121 | 0.0 | 4.8 | 0.00 | 0.00 | 0.00 | 79 | 1012.5 |
| 20260506140546 | 15 | 206 | 1.6 | 4.8 | 0.00 | 0.00 | 0.00 | 80 | 1012.6 |
| 20260506140044 | 15 | 151 | 0.0 | 4.8 | 0.00 | 0.00 | 0.00 | 80 | 1012.7 |
| 20260506135540 | 15 | 207 | 1.6 | 3.2 | 0.00 | 0.00 | 0.00 | 80 | 1012.7 |
| 20260506135036 | 15 | 151 | 0.0 | 4.8 | 0.00 | 0.00 | 0.00 | 80 | 1012.6 |
| 20260506134533 | 15 | 148 | 0.0 | 4.8 | 0.00 | 0.00 | 0.00 | 81 | 1012.8 |
| 20260506134029 | 15 | 186 | 1.6 | 4.8 | 0.00 | 0.00 | 0.00 | 81 | 1012.6 |
| 20260506133526 | 14 | 174 | 1.6 | 3.2 | 0.00 | 0.00 | 0.00 | 82 | 1012.8 |
| 20260506133023 | 14 | 220 | 3.2 | 9.7 | 0.00 | 0.00 | 0.00 | 81 | 1012.8 |
| 20260506132520 | 14 | 211 | 3.2 | 6.4 | 0.00 | 0.00 | 0.00 | 81 | 1012.8 |
| 20260506132018 | 14 | 245 | 6.4 | 9.7 | 0.00 | 0.00 | 0.00 | 81 | 1012.6 |
| 20260506131514 | 14 | 243 | 4.8 | 6.4 | 0.00 | 0.00 | 0.00 | 81 | 1012.6 |
| 20260506131011 | 14 | 232 | 4.8 | 6.4 | 0.00 | 0.00 | 0.00 | 81 | 1012.5 |
| 20260506130508 | 14 | 235 | 3.2 | 6.4 | 0.00 | 0.00 | 0.00 | 81 | 1012.5 |
| 20260506130006 | 14 | 201 | 3.2 | 12.9 | 0.00 | 0.00 | 0.00 | 81 | 1012.5 |
| 20260506125504 | 14 | 236 | 3.2 | 4.8 | 0.00 | 0.00 | 0.00 | 81 | 1012.6 |
| 20260506125001 | 13 | 219 | 3.2 | 3.2 | 0.00 | 0.00 | 0.00 | 82 | 1012.6 |
| 20260506124458 | 13 | 185 | 3.2 | 9.7 | 0.00 | 0.00 | 0.00 | 82 | 1012.6 |
| 20260506123956 | 13 | 258 | 4.8 | 6.4 | 0.00 | 0.00 | 0.00 | 82 | 1012.7 |
| 20260506123454 | 13 | 229 | 4.8 | 6.4 | 0.00 | 0.00 | 0.00 | 82 | 1012.5 |
| 20260506122951 | 13 | 234 | 3.2 | 9.7 | 0.00 | 0.00 | 0.00 | 82 | 1012.6 |
| 20260506122448 | 14 | 211 | 3.2 | 9.7 | 0.00 | 0.00 | 0.00 | 81 | 1012.5 |
| 20260506121947 | 13 | 148 | 0.0 | 3.2 | 0.00 | 0.00 | 0.00 | 82 | 1012.7 |
| 20260506121443 | 13 | 217 | 4.8 | 6.4 | 0.00 | 0.00 | 0.00 | 82 | 1012.9 |
| 20260506120940 | 14 | 243 | 3.2 | 4.8 | 0.00 | 0.00 | 0.00 | 81 | 1012.8 |
| 20260506120438 | 13 | 229 | 0.0 | 3.2 | 0.00 | 0.00 | 0.00 | 81 | 1012.8 |
| 20260506115935 | 14 | 231 | 4.8 | 4.8 | 0.00 | 0.00 | 0.00 | 81 | 1012.8 |
| 20260506115433 | 13 | 230 | 3.2 | 4.8 | 0.00 | 0.00 | 0.00 | 81 | 1012.8 |
| 20260506114931 | 13 | 176 | 1.6 | 3.2 | 0.00 | 0.00 | 0.00 | 82 | 1013.1 |
| 20260506114428 | 13 | 170 | 1.6 | 3.2 | 0.00 | 0.00 | 0.00 | 82 | 1013.1 |
| 20260506113927 | 13 | 248 | 6.4 | 6.4 | 0.00 | 0.00 | 0.00 | 81 | 1013.0 |
| 20260506113424 | 13 | 179 | 1.6 | 3.2 | 0.00 | 0.00 | 0.00 | 82 | 1013.1 |
| 20260506112920 | 13 | 156 | 1.6 | 3.2 | 0.00 | 0.00 | 0.00 | 82 | 1013.5 |
| 20260506112418 | 13 | 173 | 0.0 | 1.6 | 0.00 | 0.00 | 0.00 | 82 | 1013.4 |
| 20260506111915 | 13 | 210 | 1.6 | 1.6 | 0.00 | 0.00 | 0.00 | 82 | 1012.9 |
| 20260506111413 | 13 | 219 | 3.2 | 3.2 | 0.00 | 0.00 | 0.00 | 83 | 1013.0 |
| 20260506110910 | 13 | 199 | 1.6 | 4.8 | 0.00 | 0.00 | 0.00 | 83 | 1013.3 |
| 20260506110408 | 13 | 254 | 4.8 | 11.3 | 0.00 | 0.00 | 0.00 | 83 | 1013.0 |
| 20260506105904 | 13 | 186 | 0.0 | 3.2 | 0.00 | 0.00 | 0.00 | 83 | 1013.0 |
| 20260506105400 | 13 | 161 | 1.6 | 1.6 | 0.00 | 0.00 | 0.00 | 84 | 1013.1 |
| 20260506104858 | 12 | 182 | 1.6 | 3.2 | 0.00 | 0.00 | 0.00 | 84 | 1013.0 |
| 20260506104356 | 12 | 191 | 3.2 | 3.2 | 0.00 | 0.00 | 0.00 | 84 | 1013.1 |
| 20260506103853 | 12 | 217 | 3.2 | 6.4 | 0.00 | 0.00 | 0.00 | 84 | 1013.0 |
| 20260506103351 | 12 | 183 | 1.6 | 3.2 | 0.00 | 0.00 | 0.00 | 84 | 1013.1 |
| 20260506102848 | 12 | 170 | 1.6 | 4.8 | 0.00 | 0.00 | 0.00 | 84 | 1013.1 |
| 20260506102346 | 12 | 198 | 0.0 | 4.8 | 0.00 | 0.00 | 0.00 | 84 | 1013.3 |
| 20260506101842 | 12 | 216 | 3.2 | 4.8 | 0.00 | 0.00 | 0.00 | 84 | 1013.2 |
| 20260506101338 | 12 | 191 | 3.2 | 6.4 | 0.00 | 0.00 | 0.00 | 84 | 1013.0 |
| 20260506100836 | 12 | 216 | 3.2 | 3.2 | 0.00 | 0.00 | 0.00 | 84 | 1012.9 |
| 20260506100335 | 12 | 186 | 3.2 | 3.2 | 0.00 | 0.00 | 0.00 | 84 | 1012.9 |
| 20260506095833 | 12 | 201 | 1.6 | 4.8 | 0.00 | 0.00 | 0.00 | 84 | 1012.9 |
| 20260506095329 | 12 | 199 | 0.0 | 0.0 | 0.00 | 0.00 | 0.00 | 85 | 1012.9 |
| 20260506094826 | 12 | 209 | 0.0 | 3.2 | 0.00 | 0.00 | 0.00 | 85 | 1013.1 |
| 20260506094325 | 12 | 177 | 0.0 | 1.6 | 0.00 | 0.00 | 0.00 | 84 | 1012.9 |
| 20260506093823 | 12 | 202 | 0.0 | 0.0 | 0.00 | 0.00 | 0.00 | 84 | 1012.9 |
| 20260506093319 | 12 | 198 | 0.0 | 0.0 | 0.00 | 0.00 | 0.00 | 84 | 1012.9 |
| 20260506092818 | 12 | 198 | 0.0 | 3.2 | 0.00 | 0.00 | 0.00 | 84 | 1012.8 |
| 20260506092315 | 12 | 189 | 1.6 | 1.6 | 0.00 | 0.00 | 0.00 | 84 | 1012.7 |
| 20260506091812 | 12 | 175 | 0.0 | 1.6 | 0.00 | 0.00 | 0.00 | 83 | 1012.7 |
| 20260506091310 | 12 | 191 | 3.2 | 4.8 | 0.00 | 0.00 | 0.00 | 84 | 1012.9 |
| 20260506090807 | 12 | 219 | 1.6 | 3.2 | 0.00 | 0.00 | 0.00 | 83 | 1012.8 |
| 20260506090304 | 12 | 193 | 0.0 | 0.0 | 0.00 | 0.00 | 0.00 | 83 | 1012.8 |